首页
METAR-TAF:

METAR-TAF

机场 :

Lake Tahoe Airport

South Lake Tahoe, 加利福尼亚州, 美国

纬度: 38-53-38N, 经度: 119-59-43W, 海拔: 1909米

当前天气观测

该预报发布于35分钟前的00:53 UTC
风速6节,风向南转西南
温度 13°C
湿度 35%
气压 1017 hPa
能見度: 16.1公里
天空无云

METAR: KTVL 210053Z AUTO 20006KT 10SM CLR 13/M02 A3002 RMK AO2 SLP141 T01331022

时间: 18:28 (01:28 UTC)

预报

该预报发布于2小时和8分钟前的23:20 UTC
预报有效从21日的 00点(UTC)到 21日的 24点(UTC)
风速9节,风向
能見度: 10公里
多云层高于7000英尺
附近有阵雨
从 21日的 0200点(UTC)
风速4节,风向
能見度: 10公里
少量云层高于20000英尺
从 21日的 1800点(UTC)
风速7节,风向北转东北
能見度: 10公里
天空无云

TAF: KTVL 202320Z 2100/2124 19009KT P6SM VCSH BKN070 FM210200 18004KT P6SM FEW200 FM211800 03007KT P6SM SKC

超过4000个机场的气象观测和天气预报(METAR&TAF报告)。

可查询的气象台以黄色和红色小点在地图上表示。

将鼠标移到小点上方,可查看气象台名称。

然后点击查看天气观测和预报。

如需切换地图:点击带黑十字的绿色按钮放大地图;点击带横线的绿色按钮缩小地图;或者点击绿色箭头查看邻近地区的地图。


METAR-TAF: